sensor_id;sensor_type;location;lat;lon;timestamp;P1;durP1;ratioP1;P2;durP2;ratioP2
63807;SDS011;49961;43.970;22.868;2023-09-19T00:00:41;4.30;;;2.07;;
63807;SDS011;49961;43.970;22.868;2023-09-19T00:01:41;4.17;;;1.90;;
63807;SDS011;49961;43.970;22.868;2023-09-19T00:02:55;4.80;;;1.93;;
63807;SDS011;49961;43.970;22.868;2023-09-19T00:03:57;2.77;;;2.20;;
63807;SDS011;49961;43.970;22.868;2023-09-19T00:04:58;6.40;;;2.40;;
63807;SDS011;49961;43.970;22.868;2023-09-19T00:05:58;3.20;;;2.10;;
63807;SDS011;49961;43.970;22.868;2023-09-19T00:07:00;3.30;;;2.20;;
63807;SDS011;49961;43.970;22.868;2023-09-19T00:08:02;3.03;;;1.90;;
63807;SDS011;49961;43.970;22.868;2023-09-19T00:09:04;3.00;;;2.00;;
63807;SDS011;49961;43.970;22.868;2023-09-19T00:10:05;3.10;;;2.27;;
63807;SDS011;49961;43.970;22.868;2023-09-19T00:11:09;3.17;;;2.10;;
63807;SDS011;49961;43.970;22.868;2023-09-19T00:12:10;3.77;;;2.10;;
63807;SDS011;49961;43.970;22.868;2023-09-19T00:13:13;4.07;;;2.17;;
63807;SDS011;49961;43.970;22.868;2023-09-19T00:14:14;4.10;;;2.27;;
63807;SDS011;49961;43.970;22.868;2023-09-19T00:15:14;3.27;;;2.23;;
63807;SDS011;49961;43.970;22.868;2023-09-19T00:16:17;2.97;;;2.10;;
63807;SDS011;49961;43.970;22.868;2023-09-19T00:17:19;4.30;;;1.93;;
63807;SDS011;49961;43.970;22.868;2023-09-19T00:18:19;4.63;;;2.50;;
63807;SDS011;49961;43.970;22.868;2023-09-19T00:19:24;4.10;;;1.87;;
63807;SDS011;49961;43.970;22.868;2023-09-19T00:20:25;3.57;;;2.27;;
63807;SDS011;49961;43.970;22.868;2023-09-19T00:21:25;3.57;;;2.40;;
63807;SDS011;49961;43.970;22.868;2023-09-19T00:22:26;5.53;;;2.10;;
63807;SDS011;49961;43.970;22.868;2023-09-19T00:23:27;2.93;;;2.03;;
63807;SDS011;49961;43.970;22.868;2023-09-19T00:24:28;3.17;;;2.00;;
63807;SDS011;49961;43.970;22.868;2023-09-19T00:25:28;7.37;;;2.37;;
63807;SDS011;49961;43.970;22.868;2023-09-19T00:26:29;4.93;;;2.40;;
63807;SDS011;49961;43.970;22.868;2023-09-19T00:27:32;3.20;;;2.20;;
63807;SDS011;49961;43.970;22.868;2023-09-19T00:28:33;3.33;;;2.30;;
63807;SDS011;49961;43.970;22.868;2023-09-19T00:29:35;3.57;;;2.27;;
63807;SDS011;49961;43.970;22.868;2023-09-19T00:30:35;3.60;;;2.17;;
63807;SDS011;49961;43.970;22.868;2023-09-19T00:31:38;3.97;;;2.20;;
63807;SDS011;49961;43.970;22.868;2023-09-19T00:32:40;4.00;;;2.27;;
63807;SDS011;49961;43.970;22.868;2023-09-19T00:33:41;5.60;;;2.20;;
63807;SDS011;49961;43.970;22.868;2023-09-19T00:34:41;3.17;;;2.10;;
63807;SDS011;49961;43.970;22.868;2023-09-19T00:36:50;2.80;;;2.03;;
63807;SDS011;49961;43.970;22.868;2023-09-19T00:37:53;2.67;;;1.97;;
63807;SDS011;49961;43.970;22.868;2023-09-19T00:38:54;3.13;;;2.00;;
63807;SDS011;49961;43.970;22.868;2023-09-19T00:39:54;3.30;;;2.43;;
63807;SDS011;49961;43.970;22.868;2023-09-19T00:40:54;3.97;;;2.33;;
63807;SDS011;49961;43.970;22.868;2023-09-19T00:41:57;3.40;;;2.27;;
63807;SDS011;49961;43.970;22.868;2023-09-19T00:42:58;5.37;;;2.17;;
63807;SDS011;49961;43.970;22.868;2023-09-19T00:44:01;3.53;;;2.40;;
63807;SDS011;49961;43.970;22.868;2023-09-19T00:45:04;4.17;;;2.17;;
63807;SDS011;49961;43.970;22.868;2023-09-19T00:46:06;2.97;;;2.20;;
63807;SDS011;49961;43.970;22.868;2023-09-19T00:47:07;3.13;;;2.10;;
63807;SDS011;49961;43.970;22.868;2023-09-19T00:48:09;3.43;;;2.00;;
63807;SDS011;49961;43.970;22.868;2023-09-19T00:49:10;6.97;;;2.33;;
63807;SDS011;49961;43.970;22.868;2023-09-19T00:50:11;3.20;;;2.20;;
63807;SDS011;49961;43.970;22.868;2023-09-19T00:51:14;2.87;;;2.27;;
63807;SDS011;49961;43.970;22.868;2023-09-19T00:52:19;3.63;;;2.63;;
63807;SDS011;49961;43.970;22.868;2023-09-19T00:53:21;3.50;;;2.27;;
63807;SDS011;49961;43.970;22.868;2023-09-19T00:54:23;4.07;;;2.60;;
63807;SDS011;49961;43.970;22.868;2023-09-19T00:55:24;5.10;;;2.00;;
63807;SDS011;49961;43.970;22.868;2023-09-19T00:56:25;3.53;;;2.27;;
63807;SDS011;49961;43.970;22.868;2023-09-19T00:57:26;5.07;;;2.40;;
63807;SDS011;49961;43.970;22.868;2023-09-19T00:58:27;3.47;;;2.40;;
63807;SDS011;49961;43.970;22.868;2023-09-19T00:59:32;4.00;;;2.43;;
63807;SDS011;49961;43.970;22.868;2023-09-19T01:00:33;5.47;;;2.40;;
63807;SDS011;49961;43.970;22.868;2023-09-19T01:01:34;2.80;;;2.10;;
63807;SDS011;49961;43.970;22.868;2023-09-19T01:02:35;5.70;;;2.37;;
63807;SDS011;49961;43.970;22.868;2023-09-19T01:03:38;3.37;;;2.10;;
63807;SDS011;49961;43.970;22.868;2023-09-19T01:04:40;2.70;;;1.83;;
63807;SDS011;49961;43.970;22.868;2023-09-19T01:05:41;3.13;;;2.07;;
63807;SDS011;49961;43.970;22.868;2023-09-19T01:06:42;3.47;;;2.30;;
63807;SDS011;49961;43.970;22.868;2023-09-19T01:07:45;4.30;;;2.33;;
63807;SDS011;49961;43.970;22.868;2023-09-19T01:08:48;3.63;;;2.40;;
63807;SDS011;49961;43.970;22.868;2023-09-19T01:09:49;4.80;;;2.37;;
63807;SDS011;49961;43.970;22.868;2023-09-19T01:10:55;3.63;;;2.50;;
63807;SDS011;49961;43.970;22.868;2023-09-19T01:12:01;4.27;;;2.47;;
63807;SDS011;49961;43.970;22.868;2023-09-19T01:13:17;4.40;;;2.83;;
63807;SDS011;49961;43.970;22.868;2023-09-19T01:14:34;4.23;;;2.63;;
63807;SDS011;49961;43.970;22.868;2023-09-19T01:15:44;2.87;;;2.20;;
63807;SDS011;49961;43.970;22.868;2023-09-19T01:17:03;4.93;;;2.23;;
63807;SDS011;49961;43.970;22.868;2023-09-19T01:20:25;6.27;;;2.30;;
63807;SDS011;49961;43.970;22.868;2023-09-19T01:24:18;4.97;;;2.20;;
63807;SDS011;49961;43.970;22.868;2023-09-19T01:25:42;3.30;;;1.83;;
63807;SDS011;49961;43.970;22.868;2023-09-19T01:27:22;4.93;;;2.70;;
63807;SDS011;49961;43.970;22.868;2023-09-19T01:28:53;4.27;;;2.33;;
63807;SDS011;49961;43.970;22.868;2023-09-19T01:30:13;4.37;;;2.70;;
63807;SDS011;49961;43.970;22.868;2023-09-19T01:31:17;6.17;;;2.07;;
63807;SDS011;49961;43.970;22.868;2023-09-19T01:32:20;2.80;;;2.10;;
63807;SDS011;49961;43.970;22.868;2023-09-19T01:33:22;3.30;;;2.53;;
63807;SDS011;49961;43.970;22.868;2023-09-19T01:34:23;5.40;;;2.47;;
63807;SDS011;49961;43.970;22.868;2023-09-19T01:35:23;4.40;;;2.20;;
63807;SDS011;49961;43.970;22.868;2023-09-19T01:36:24;5.97;;;2.27;;
63807;SDS011;49961;43.970;22.868;2023-09-19T01:37:25;4.90;;;2.50;;
63807;SDS011;49961;43.970;22.868;2023-09-19T01:38:26;6.20;;;2.67;;
63807;SDS011;49961;43.970;22.868;2023-09-19T01:39:29;4.07;;;2.47;;
63807;SDS011;49961;43.970;22.868;2023-09-19T01:40:29;3.27;;;2.43;;
63807;SDS011;49961;43.970;22.868;2023-09-19T01:41:38;3.80;;;2.70;;
63807;SDS011;49961;43.970;22.868;2023-09-19T01:42:50;3.40;;;1.80;;
63807;SDS011;49961;43.970;22.868;2023-09-19T01:44:17;5.90;;;2.20;;
63807;SDS011;49961;43.970;22.868;2023-09-19T01:46:45;4.13;;;2.40;;
63807;SDS011;49961;43.970;22.868;2023-09-19T01:47:54;3.17;;;2.23;;
63807;SDS011;49961;43.970;22.868;2023-09-19T01:53:10;3.53;;;2.03;;
63807;SDS011;49961;43.970;22.868;2023-09-19T01:54:24;7.77;;;2.20;;
63807;SDS011;49961;43.970;22.868;2023-09-19T01:55:26;5.97;;;2.60;;
63807;SDS011;49961;43.970;22.868;2023-09-19T01:56:47;2.57;;;2.10;;
63807;SDS011;49961;43.970;22.868;2023-09-19T01:58:04;4.63;;;2.30;;
63807;SDS011;49961;43.970;22.868;2023-09-19T01:59:10;6.03;;;2.47;;
63807;SDS011;49961;43.970;22.868;2023-09-19T02:00:14;5.67;;;2.33;;
63807;SDS011;49961;43.970;22.868;2023-09-19T02:01:18;4.27;;;2.43;;
63807;SDS011;49961;43.970;22.868;2023-09-19T02:02:22;7.60;;;2.33;;
63807;SDS011;49961;43.970;22.868;2023-09-19T02:03:24;6.23;;;2.33;;
63807;SDS011;49961;43.970;22.868;2023-09-19T02:04:27;9.70;;;2.50;;
63807;SDS011;49961;43.970;22.868;2023-09-19T02:05:28;5.57;;;2.70;;
63807;SDS011;49961;43.970;22.868;2023-09-19T02:06:29;4.13;;;2.67;;
63807;SDS011;49961;43.970;22.868;2023-09-19T02:07:29;4.70;;;2.40;;
63807;SDS011;49961;43.970;22.868;2023-09-19T02:08:31;6.73;;;2.60;;
63807;SDS011;49961;43.970;22.868;2023-09-19T02:09:33;5.47;;;2.97;;
63807;SDS011;49961;43.970;22.868;2023-09-19T02:10:39;8.10;;;2.67;;
63807;SDS011;49961;43.970;22.868;2023-09-19T02:11:41;6.57;;;2.80;;
63807;SDS011;49961;43.970;22.868;2023-09-19T02:12:42;11.03;;;2.83;;
63807;SDS011;49961;43.970;22.868;2023-09-19T02:13:42;5.17;;;2.80;;
63807;SDS011;49961;43.970;22.868;2023-09-19T02:14:43;6.63;;;3.03;;
63807;SDS011;49961;43.970;22.868;2023-09-19T02:15:44;5.97;;;2.87;;
63807;SDS011;49961;43.970;22.868;2023-09-19T02:16:44;6.97;;;2.40;;
63807;SDS011;49961;43.970;22.868;2023-09-19T02:17:45;5.23;;;2.53;;
63807;SDS011;49961;43.970;22.868;2023-09-19T02:18:47;3.37;;;2.47;;
63807;SDS011;49961;43.970;22.868;2023-09-19T02:19:49;4.53;;;2.23;;
63807;SDS011;49961;43.970;22.868;2023-09-19T02:20:50;3.50;;;2.37;;
63807;SDS011;49961;43.970;22.868;2023-09-19T02:21:51;4.23;;;2.30;;
63807;SDS011;49961;43.970;22.868;2023-09-19T02:22:52;4.03;;;1.93;;
63807;SDS011;49961;43.970;22.868;2023-09-19T02:23:53;3.20;;;2.20;;
63807;SDS011;49961;43.970;22.868;2023-09-19T02:24:53;4.00;;;2.50;;
63807;SDS011;49961;43.970;22.868;2023-09-19T02:25:54;9.90;;;2.50;;
63807;SDS011;49961;43.970;22.868;2023-09-19T02:26:54;3.57;;;2.40;;
63807;SDS011;49961;43.970;22.868;2023-09-19T02:27:56;3.37;;;1.97;;
63807;SDS011;49961;43.970;22.868;2023-09-19T02:28:58;5.13;;;2.23;;
63807;SDS011;49961;43.970;22.868;2023-09-19T02:29:59;8.63;;;3.13;;
63807;SDS011;49961;43.970;22.868;2023-09-19T02:31:03;7.43;;;2.83;;
63807;SDS011;49961;43.970;22.868;2023-09-19T02:32:05;6.73;;;2.63;;
63807;SDS011;49961;43.970;22.868;2023-09-19T02:33:06;4.73;;;2.60;;
63807;SDS011;49961;43.970;22.868;2023-09-19T02:34:08;7.33;;;2.77;;
63807;SDS011;49961;43.970;22.868;2023-09-19T02:35:09;5.00;;;2.70;;
63807;SDS011;49961;43.970;22.868;2023-09-19T02:36:11;4.37;;;2.77;;
63807;SDS011;49961;43.970;22.868;2023-09-19T02:37:11;5.77;;;2.87;;
63807;SDS011;49961;43.970;22.868;2023-09-19T02:38:13;7.67;;;3.40;;
63807;SDS011;49961;43.970;22.868;2023-09-19T02:39:14;4.50;;;2.50;;
63807;SDS011;49961;43.970;22.868;2023-09-19T02:40:15;5.80;;;2.57;;
63807;SDS011;49961;43.970;22.868;2023-09-19T02:41:18;3.97;;;2.47;;
63807;SDS011;49961;43.970;22.868;2023-09-19T02:42:19;6.87;;;2.57;;
63807;SDS011;49961;43.970;22.868;2023-09-19T02:43:19;7.40;;;2.67;;
63807;SDS011;49961;43.970;22.868;2023-09-19T02:44:20;3.93;;;2.63;;
63807;SDS011;49961;43.970;22.868;2023-09-19T02:45:20;3.63;;;2.40;;
63807;SDS011;49961;43.970;22.868;2023-09-19T02:46:22;5.63;;;2.70;;
63807;SDS011;49961;43.970;22.868;2023-09-19T02:47:23;4.73;;;2.30;;
63807;SDS011;49961;43.970;22.868;2023-09-19T02:48:23;4.90;;;2.20;;
63807;SDS011;49961;43.970;22.868;2023-09-19T02:49:25;4.53;;;2.30;;
63807;SDS011;49961;43.970;22.868;2023-09-19T02:50:26;3.23;;;2.27;;
63807;SDS011;49961;43.970;22.868;2023-09-19T02:51:26;4.37;;;2.30;;
63807;SDS011;49961;43.970;22.868;2023-09-19T02:52:27;3.97;;;2.67;;
63807;SDS011;49961;43.970;22.868;2023-09-19T02:53:27;4.00;;;2.40;;
63807;SDS011;49961;43.970;22.868;2023-09-19T02:54:27;3.33;;;2.40;;
63807;SDS011;49961;43.970;22.868;2023-09-19T02:55:28;3.93;;;2.30;;
63807;SDS011;49961;43.970;22.868;2023-09-19T02:56:29;3.20;;;2.30;;
63807;SDS011;49961;43.970;22.868;2023-09-19T02:57:30;3.93;;;2.40;;
63807;SDS011;49961;43.970;22.868;2023-09-19T02:58:33;6.57;;;3.27;;
63807;SDS011;49961;43.970;22.868;2023-09-19T02:59:35;4.73;;;2.97;;
63807;SDS011;49961;43.970;22.868;2023-09-19T03:00:37;5.33;;;3.00;;
63807;SDS011;49961;43.970;22.868;2023-09-19T03:01:38;6.03;;;3.07;;
63807;SDS011;49961;43.970;22.868;2023-09-19T03:02:38;4.67;;;2.53;;
63807;SDS011;49961;43.970;22.868;2023-09-19T03:03:41;7.93;;;3.33;;
63807;SDS011;49961;43.970;22.868;2023-09-19T03:04:41;6.33;;;2.80;;
63807;SDS011;49961;43.970;22.868;2023-09-19T03:05:42;7.17;;;2.70;;
63807;SDS011;49961;43.970;22.868;2023-09-19T03:06:46;4.27;;;2.43;;
63807;SDS011;49961;43.970;22.868;2023-09-19T03:07:49;4.43;;;2.53;;
63807;SDS011;49961;43.970;22.868;2023-09-19T03:08:52;5.07;;;2.50;;
63807;SDS011;49961;43.970;22.868;2023-09-19T03:09:53;3.00;;;2.00;;
63807;SDS011;49961;43.970;22.868;2023-09-19T03:10:54;3.80;;;2.53;;
63807;SDS011;49961;43.970;22.868;2023-09-19T03:11:54;3.50;;;2.50;;
63807;SDS011;49961;43.970;22.868;2023-09-19T03:12:55;4.10;;;2.33;;
63807;SDS011;49961;43.970;22.868;2023-09-19T03:13:55;3.80;;;2.57;;
63807;SDS011;49961;43.970;22.868;2023-09-19T03:14:56;4.30;;;2.70;;
63807;SDS011;49961;43.970;22.868;2023-09-19T03:15:56;5.10;;;2.83;;
63807;SDS011;49961;43.970;22.868;2023-09-19T03:16:58;2.87;;;2.30;;
63807;SDS011;49961;43.970;22.868;2023-09-19T03:17:59;5.17;;;2.33;;
63807;SDS011;49961;43.970;22.868;2023-09-19T03:19:00;3.57;;;2.23;;
63807;SDS011;49961;43.970;22.868;2023-09-19T03:20:00;3.40;;;2.37;;
63807;SDS011;49961;43.970;22.868;2023-09-19T03:21:01;3.43;;;2.40;;
63807;SDS011;49961;43.970;22.868;2023-09-19T03:22:01;6.17;;;3.07;;
63807;SDS011;49961;43.970;22.868;2023-09-19T03:23:03;3.23;;;2.37;;
63807;SDS011;49961;43.970;22.868;2023-09-19T03:24:05;3.30;;;2.40;;
63807;SDS011;49961;43.970;22.868;2023-09-19T03:25:07;4.17;;;2.17;;
63807;SDS011;49961;43.970;22.868;2023-09-19T03:26:12;5.90;;;2.47;;
63807;SDS011;49961;43.970;22.868;2023-09-19T03:27:14;3.40;;;1.97;;
63807;SDS011;49961;43.970;22.868;2023-09-19T03:28:16;5.10;;;1.97;;
63807;SDS011;49961;43.970;22.868;2023-09-19T03:29:16;4.73;;;2.00;;
63807;SDS011;49961;43.970;22.868;2023-09-19T03:30:17;3.30;;;2.20;;
63807;SDS011;49961;43.970;22.868;2023-09-19T03:31:17;3.83;;;2.10;;
63807;SDS011;49961;43.970;22.868;2023-09-19T03:32:18;3.67;;;2.20;;
63807;SDS011;49961;43.970;22.868;2023-09-19T03:33:19;3.30;;;2.30;;
63807;SDS011;49961;43.970;22.868;2023-09-19T03:34:20;4.40;;;2.90;;
63807;SDS011;49961;43.970;22.868;2023-09-19T03:35:20;3.77;;;2.50;;
63807;SDS011;49961;43.970;22.868;2023-09-19T03:36:21;3.93;;;2.40;;
63807;SDS011;49961;43.970;22.868;2023-09-19T03:37:21;3.90;;;2.70;;
63807;SDS011;49961;43.970;22.868;2023-09-19T03:38:22;5.80;;;2.57;;
63807;SDS011;49961;43.970;22.868;2023-09-19T03:39:23;5.23;;;2.40;;
63807;SDS011;49961;43.970;22.868;2023-09-19T03:40:24;3.70;;;2.20;;
63807;SDS011;49961;43.970;22.868;2023-09-19T03:41:25;3.43;;;2.40;;
63807;SDS011;49961;43.970;22.868;2023-09-19T03:42:25;3.43;;;2.30;;
63807;SDS011;49961;43.970;22.868;2023-09-19T03:43:26;2.80;;;2.03;;
63807;SDS011;49961;43.970;22.868;2023-09-19T03:44:27;5.17;;;2.50;;
63807;SDS011;49961;43.970;22.868;2023-09-19T03:45:27;5.13;;;2.53;;
63807;SDS011;49961;43.970;22.868;2023-09-19T03:46:28;3.77;;;2.27;;
63807;SDS011;49961;43.970;22.868;2023-09-19T03:47:29;4.10;;;2.40;;
63807;SDS011;49961;43.970;22.868;2023-09-19T03:48:29;3.93;;;2.70;;
63807;SDS011;49961;43.970;22.868;2023-09-19T03:49:30;4.30;;;2.57;;
63807;SDS011;49961;43.970;22.868;2023-09-19T03:50:30;7.57;;;2.70;;
63807;SDS011;49961;43.970;22.868;2023-09-19T03:51:33;4.50;;;2.50;;
63807;SDS011;49961;43.970;22.868;2023-09-19T03:52:34;5.10;;;2.63;;
63807;SDS011;49961;43.970;22.868;2023-09-19T03:53:34;4.87;;;2.30;;
63807;SDS011;49961;43.970;22.868;2023-09-19T03:54:35;3.77;;;2.63;;
63807;SDS011;49961;43.970;22.868;2023-09-19T03:55:35;5.00;;;2.67;;
63807;SDS011;49961;43.970;22.868;2023-09-19T03:56:36;3.57;;;2.33;;
63807;SDS011;49961;43.970;22.868;2023-09-19T03:57:36;3.27;;;1.73;;
63807;SDS011;49961;43.970;22.868;2023-09-19T03:58:38;3.27;;;1.80;;
63807;SDS011;49961;43.970;22.868;2023-09-19T03:59:40;2.83;;;1.80;;
63807;SDS011;49961;43.970;22.868;2023-09-19T04:00:42;3.50;;;1.80;;
63807;SDS011;49961;43.970;22.868;2023-09-19T04:01:43;9.43;;;2.40;;
63807;SDS011;49961;43.970;22.868;2023-09-19T04:02:43;8.87;;;2.40;;
63807;SDS011;49961;43.970;22.868;2023-09-19T04:03:46;4.73;;;1.77;;
63807;SDS011;49961;43.970;22.868;2023-09-19T04:04:53;7.93;;;2.30;;
63807;SDS011;49961;43.970;22.868;2023-09-19T04:05:54;6.13;;;2.80;;
63807;SDS011;49961;43.970;22.868;2023-09-19T04:06:55;3.67;;;2.50;;
63807;SDS011;49961;43.970;22.868;2023-09-19T04:07:55;4.27;;;2.00;;
63807;SDS011;49961;43.970;22.868;2023-09-19T04:08:55;9.07;;;2.87;;
63807;SDS011;49961;43.970;22.868;2023-09-19T04:09:57;10.10;;;2.13;;
63807;SDS011;49961;43.970;22.868;2023-09-19T04:10:58;3.40;;;2.17;;
63807;SDS011;49961;43.970;22.868;2023-09-19T04:11:58;4.30;;;2.70;;
63807;SDS011;49961;43.970;22.868;2023-09-19T04:12:59;4.77;;;2.33;;
63807;SDS011;49961;43.970;22.868;2023-09-19T04:13:59;4.20;;;1.97;;
63807;SDS011;49961;43.970;22.868;2023-09-19T04:15:06;3.20;;;2.20;;
63807;SDS011;49961;43.970;22.868;2023-09-19T04:16:08;6.33;;;2.40;;
63807;SDS011;49961;43.970;22.868;2023-09-19T04:17:09;3.80;;;1.90;;
63807;SDS011;49961;43.970;22.868;2023-09-19T04:18:10;3.63;;;2.30;;
63807;SDS011;49961;43.970;22.868;2023-09-19T04:19:11;3.80;;;2.10;;
63807;SDS011;49961;43.970;22.868;2023-09-19T04:20:11;3.87;;;2.07;;
63807;SDS011;49961;43.970;22.868;2023-09-19T04:21:15;3.53;;;1.90;;
63807;SDS011;49961;43.970;22.868;2023-09-19T04:22:16;4.20;;;1.80;;
63807;SDS011;49961;43.970;22.868;2023-09-19T04:23:17;6.97;;;2.00;;
63807;SDS011;49961;43.970;22.868;2023-09-19T04:24:17;2.33;;;1.80;;
63807;SDS011;49961;43.970;22.868;2023-09-19T04:25:19;4.57;;;1.93;;
63807;SDS011;49961;43.970;22.868;2023-09-19T04:26:20;3.63;;;2.43;;
63807;SDS011;49961;43.970;22.868;2023-09-19T04:27:21;3.70;;;1.93;;
63807;SDS011;49961;43.970;22.868;2023-09-19T04:28:23;4.57;;;2.20;;
63807;SDS011;49961;43.970;22.868;2023-09-19T04:29:24;3.07;;;1.73;;
63807;SDS011;49961;43.970;22.868;2023-09-19T04:30:26;4.77;;;2.30;;
63807;SDS011;49961;43.970;22.868;2023-09-19T04:31:27;4.40;;;2.30;;
63807;SDS011;49961;43.970;22.868;2023-09-19T04:32:28;3.77;;;2.30;;
63807;SDS011;49961;43.970;22.868;2023-09-19T04:33:29;5.77;;;2.10;;
63807;SDS011;49961;43.970;22.868;2023-09-19T04:34:30;6.67;;;3.73;;
63807;SDS011;49961;43.970;22.868;2023-09-19T04:35:31;6.07;;;3.50;;
63807;SDS011;49961;43.970;22.868;2023-09-19T04:36:31;8.60;;;3.70;;
63807;SDS011;49961;43.970;22.868;2023-09-19T04:37:32;5.77;;;3.60;;
63807;SDS011;49961;43.970;22.868;2023-09-19T04:38:33;7.97;;;3.53;;
63807;SDS011;49961;43.970;22.868;2023-09-19T04:39:33;6.57;;;3.93;;
63807;SDS011;49961;43.970;22.868;2023-09-19T04:40:34;7.80;;;4.07;;
63807;SDS011;49961;43.970;22.868;2023-09-19T04:41:35;7.30;;;4.60;;
63807;SDS011;49961;43.970;22.868;2023-09-19T04:42:36;8.70;;;4.17;;
63807;SDS011;49961;43.970;22.868;2023-09-19T04:43:37;9.10;;;4.73;;
63807;SDS011;49961;43.970;22.868;2023-09-19T04:44:38;6.80;;;4.67;;
63807;SDS011;49961;43.970;22.868;2023-09-19T04:45:39;7.00;;;4.63;;
63807;SDS011;49961;43.970;22.868;2023-09-19T04:46:42;6.53;;;4.10;;
63807;SDS011;49961;43.970;22.868;2023-09-19T04:47:43;9.73;;;3.53;;
63807;SDS011;49961;43.970;22.868;2023-09-19T04:48:43;5.60;;;3.40;;
63807;SDS011;49961;43.970;22.868;2023-09-19T04:49:44;6.90;;;3.17;;
63807;SDS011;49961;43.970;22.868;2023-09-19T04:50:44;5.03;;;2.87;;
63807;SDS011;49961;43.970;22.868;2023-09-19T04:51:45;6.87;;;3.57;;
63807;SDS011;49961;43.970;22.868;2023-09-19T04:52:49;6.60;;;4.00;;
63807;SDS011;49961;43.970;22.868;2023-09-19T04:53:50;9.30;;;5.40;;
63807;SDS011;49961;43.970;22.868;2023-09-19T04:54:51;7.67;;;5.43;;
63807;SDS011;49961;43.970;22.868;2023-09-19T04:55:51;7.57;;;5.17;;
63807;SDS011;49961;43.970;22.868;2023-09-19T04:56:52;6.97;;;4.83;;
63807;SDS011;49961;43.970;22.868;2023-09-19T04:57:53;8.47;;;3.20;;
63807;SDS011;49961;43.970;22.868;2023-09-19T04:58:53;7.03;;;3.73;;
63807;SDS011;49961;43.970;22.868;2023-09-19T04:59:54;5.43;;;2.70;;
63807;SDS011;49961;43.970;22.868;2023-09-19T05:00:55;4.83;;;3.20;;
63807;SDS011;49961;43.970;22.868;2023-09-19T05:01:59;6.30;;;4.40;;
63807;SDS011;49961;43.970;22.868;2023-09-19T05:03:00;6.73;;;3.07;;
63807;SDS011;49961;43.970;22.868;2023-09-19T05:04:01;4.40;;;3.20;;
63807;SDS011;49961;43.970;22.868;2023-09-19T05:05:05;5.93;;;3.17;;
63807;SDS011;49961;43.970;22.868;2023-09-19T05:06:08;4.77;;;2.50;;
63807;SDS011;49961;43.970;22.868;2023-09-19T05:07:08;3.83;;;2.70;;
63807;SDS011;49961;43.970;22.868;2023-09-19T05:08:11;3.97;;;2.50;;
63807;SDS011;49961;43.970;22.868;2023-09-19T05:09:14;4.03;;;2.80;;
63807;SDS011;49961;43.970;22.868;2023-09-19T05:10:40;4.57;;;2.70;;
63807;SDS011;49961;43.970;22.868;2023-09-19T05:11:40;4.40;;;2.67;;
63807;SDS011;49961;43.970;22.868;2023-09-19T05:12:41;4.23;;;2.93;;
63807;SDS011;49961;43.970;22.868;2023-09-19T05:13:43;3.37;;;2.63;;
63807;SDS011;49961;43.970;22.868;2023-09-19T05:14:44;3.90;;;2.20;;
63807;SDS011;49961;43.970;22.868;2023-09-19T05:15:44;4.07;;;2.77;;
63807;SDS011;49961;43.970;22.868;2023-09-19T05:16:44;4.20;;;3.03;;
63807;SDS011;49961;43.970;22.868;2023-09-19T05:17:48;4.73;;;3.10;;
63807;SDS011;49961;43.970;22.868;2023-09-19T05:18:55;5.30;;;3.80;;
63807;SDS011;49961;43.970;22.868;2023-09-19T05:19:56;4.27;;;2.83;;
63807;SDS011;49961;43.970;22.868;2023-09-19T05:20:58;3.90;;;2.80;;
63807;SDS011;49961;43.970;22.868;2023-09-19T05:21:58;4.50;;;2.40;;
63807;SDS011;49961;43.970;22.868;2023-09-19T05:24:03;6.00;;;3.00;;
63807;SDS011;49961;43.970;22.868;2023-09-19T05:25:04;5.03;;;2.83;;
63807;SDS011;49961;43.970;22.868;2023-09-19T05:26:05;4.93;;;2.57;;
63807;SDS011;49961;43.970;22.868;2023-09-19T05:27:05;6.30;;;2.77;;
63807;SDS011;49961;43.970;22.868;2023-09-19T05:28:07;5.03;;;2.90;;
63807;SDS011;49961;43.970;22.868;2023-09-19T05:29:10;5.73;;;3.50;;
63807;SDS011;49961;43.970;22.868;2023-09-19T05:30:11;3.90;;;2.73;;
63807;SDS011;49961;43.970;22.868;2023-09-19T05:31:14;4.17;;;2.33;;
63807;SDS011;49961;43.970;22.868;2023-09-19T05:32:16;3.83;;;2.77;;
63807;SDS011;49961;43.970;22.868;2023-09-19T05:33:18;7.77;;;3.03;;
63807;SDS011;49961;43.970;22.868;2023-09-19T05:34:19;3.87;;;2.60;;
63807;SDS011;49961;43.970;22.868;2023-09-19T05:35:20;4.50;;;2.73;;
63807;SDS011;49961;43.970;22.868;2023-09-19T05:36:24;3.80;;;2.20;;
63807;SDS011;49961;43.970;22.868;2023-09-19T05:37:24;3.30;;;2.33;;
63807;SDS011;49961;43.970;22.868;2023-09-19T05:38:26;5.33;;;2.50;;
63807;SDS011;49961;43.970;22.868;2023-09-19T05:39:27;5.40;;;2.80;;
63807;SDS011;49961;43.970;22.868;2023-09-19T05:40:28;4.07;;;2.60;;
63807;SDS011;49961;43.970;22.868;2023-09-19T05:41:28;4.93;;;2.70;;
63807;SDS011;49961;43.970;22.868;2023-09-19T05:42:28;4.17;;;2.27;;
63807;SDS011;49961;43.970;22.868;2023-09-19T05:43:29;4.03;;;2.30;;
63807;SDS011;49961;43.970;22.868;2023-09-19T05:44:29;3.17;;;2.20;;
63807;SDS011;49961;43.970;22.868;2023-09-19T05:45:30;4.70;;;2.67;;
63807;SDS011;49961;43.970;22.868;2023-09-19T05:46:30;4.87;;;2.63;;
63807;SDS011;49961;43.970;22.868;2023-09-19T05:47:31;3.53;;;2.37;;
63807;SDS011;49961;43.970;22.868;2023-09-19T05:48:31;4.77;;;2.80;;
63807;SDS011;49961;43.970;22.868;2023-09-19T05:49:32;6.53;;;2.63;;
63807;SDS011;49961;43.970;22.868;2023-09-19T05:50:33;6.60;;;3.70;;
63807;SDS011;49961;43.970;22.868;2023-09-19T05:51:34;6.70;;;3.90;;
63807;SDS011;49961;43.970;22.868;2023-09-19T05:52:35;6.90;;;4.50;;
63807;SDS011;49961;43.970;22.868;2023-09-19T05:53:37;8.67;;;4.17;;
63807;SDS011;49961;43.970;22.868;2023-09-19T05:54:37;6.13;;;3.90;;
63807;SDS011;49961;43.970;22.868;2023-09-19T05:55:38;5.67;;;3.30;;
63807;SDS011;49961;43.970;22.868;2023-09-19T05:56:39;4.17;;;2.77;;
63807;SDS011;49961;43.970;22.868;2023-09-19T05:57:39;5.37;;;2.43;;
63807;SDS011;49961;43.970;22.868;2023-09-19T05:58:40;5.90;;;2.47;;
63807;SDS011;49961;43.970;22.868;2023-09-19T05:59:44;4.50;;;2.40;;
63807;SDS011;49961;43.970;22.868;2023-09-19T06:00:44;4.47;;;2.50;;
63807;SDS011;49961;43.970;22.868;2023-09-19T06:01:47;4.53;;;2.83;;
63807;SDS011;49961;43.970;22.868;2023-09-19T06:02:51;3.33;;;2.27;;
63807;SDS011;49961;43.970;22.868;2023-09-19T06:03:52;4.23;;;2.40;;
63807;SDS011;49961;43.970;22.868;2023-09-19T06:04:53;5.33;;;2.57;;
63807;SDS011;49961;43.970;22.868;2023-09-19T06:05:55;4.90;;;2.70;;
63807;SDS011;49961;43.970;22.868;2023-09-19T06:06:57;4.27;;;2.57;;
63807;SDS011;49961;43.970;22.868;2023-09-19T06:07:58;6.37;;;2.70;;
63807;SDS011;49961;43.970;22.868;2023-09-19T06:09:07;6.50;;;2.67;;
63807;SDS011;49961;43.970;22.868;2023-09-19T06:10:11;6.13;;;2.20;;
63807;SDS011;49961;43.970;22.868;2023-09-19T06:11:11;3.10;;;2.40;;
63807;SDS011;49961;43.970;22.868;2023-09-19T06:12:11;5.67;;;2.70;;
63807;SDS011;49961;43.970;22.868;2023-09-19T06:13:13;4.47;;;2.77;;
63807;SDS011;49961;43.970;22.868;2023-09-19T06:14:13;4.50;;;2.67;;
63807;SDS011;49961;43.970;22.868;2023-09-19T06:15:14;4.60;;;2.70;;
63807;SDS011;49961;43.970;22.868;2023-09-19T06:16:18;4.57;;;2.87;;
63807;SDS011;49961;43.970;22.868;2023-09-19T06:17:19;4.07;;;2.57;;
63807;SDS011;49961;43.970;22.868;2023-09-19T06:18:22;3.10;;;2.40;;
63807;SDS011;49961;43.970;22.868;2023-09-19T06:19:26;4.30;;;2.43;;
63807;SDS011;49961;43.970;22.868;2023-09-19T06:20:26;4.93;;;2.53;;
63807;SDS011;49961;43.970;22.868;2023-09-19T06:21:27;3.70;;;2.40;;
63807;SDS011;49961;43.970;22.868;2023-09-19T06:22:27;4.33;;;2.53;;